createdAt,value
2023-05-15T00:00:14.148Z,395.00
2023-05-15T00:01:14.169Z,393.00
2023-05-15T00:02:14.195Z,390.00
2023-05-15T00:03:14.235Z,391.00
2023-05-15T00:04:14.190Z,390.00
2023-05-15T00:05:14.400Z,390.00
2023-05-15T00:06:14.150Z,393.00
2023-05-15T00:07:14.169Z,394.00
2023-05-15T00:08:14.134Z,396.00
2023-05-15T00:09:14.142Z,397.00
2023-05-15T00:10:14.145Z,398.00
2023-05-15T00:11:14.137Z,398.00
2023-05-15T00:12:14.126Z,400.00
2023-05-15T00:13:14.097Z,400.00
2023-05-15T00:14:14.101Z,401.00
2023-05-15T00:15:14.125Z,400.00
2023-05-15T00:16:14.164Z,398.00
2023-05-15T00:17:14.095Z,397.00
2023-05-15T00:18:14.151Z,396.00
2023-05-15T00:19:14.180Z,396.00
2023-05-15T00:20:14.074Z,395.00
2023-05-15T00:21:14.059Z,396.00
2023-05-15T00:22:14.070Z,395.00
2023-05-15T00:23:14.079Z,393.00
2023-05-15T00:24:14.079Z,395.00
2023-05-15T00:25:14.080Z,397.00
2023-05-15T00:26:14.066Z,399.00
2023-05-15T00:27:14.076Z,400.00
2023-05-15T00:28:14.080Z,398.00
2023-05-15T00:29:14.056Z,398.00
2023-05-15T00:30:14.076Z,397.00
2023-05-15T00:31:14.078Z,397.00
2023-05-15T00:32:14.082Z,396.00
2023-05-15T00:33:14.073Z,394.00
2023-05-15T00:34:14.072Z,395.00
2023-05-15T00:35:14.054Z,396.00
2023-05-15T00:36:14.087Z,396.00
2023-05-15T00:37:14.086Z,399.00
2023-05-15T00:38:14.079Z,400.00
2023-05-15T00:39:14.079Z,399.00
2023-05-15T00:40:14.055Z,398.00
2023-05-15T00:41:14.084Z,399.00
2023-05-15T00:42:14.085Z,399.00
2023-05-15T00:43:14.098Z,399.00
2023-05-15T00:44:14.099Z,400.00
2023-05-15T00:45:14.110Z,401.00
2023-05-15T00:46:14.083Z,400.00
2023-05-15T00:47:14.180Z,399.00
2023-05-15T00:48:14.066Z,398.00
2023-05-15T00:49:14.104Z,397.00
2023-05-15T00:50:14.094Z,395.00
2023-05-15T00:51:14.083Z,395.00
2023-05-15T00:52:14.105Z,399.00
2023-05-15T00:53:14.099Z,397.00
2023-05-15T00:54:14.185Z,399.00
2023-05-15T00:55:14.115Z,398.00
2023-05-15T00:56:14.130Z,396.00
2023-05-15T00:57:14.099Z,397.00
2023-05-15T00:58:14.103Z,397.00
2023-05-15T00:59:14.125Z,400.00
2023-05-15T01:00:14.104Z,401.00
2023-05-15T01:01:14.225Z,402.00
2023-05-15T01:02:14.179Z,401.00
2023-05-15T01:03:14.212Z,401.00
2023-05-15T01:04:14.121Z,400.00
2023-05-15T01:05:14.130Z,404.00
2023-05-15T01:06:14.108Z,403.00
2023-05-15T01:07:14.113Z,402.00
2023-05-15T01:08:14.134Z,401.00
2023-05-15T01:09:14.130Z,401.00
2023-05-15T01:10:14.179Z,401.00
2023-05-15T01:11:14.179Z,399.00
2023-05-15T01:12:14.153Z,397.00
2023-05-15T01:13:14.181Z,397.00
2023-05-15T01:14:14.182Z,394.00
2023-05-15T01:15:14.167Z,395.00
2023-05-15T01:16:14.180Z,396.00
2023-05-15T01:17:14.174Z,395.00
2023-05-15T01:18:14.284Z,397.00
2023-05-15T01:19:14.277Z,398.00
2023-05-15T01:20:14.174Z,401.00
2023-05-15T01:21:14.185Z,401.00
2023-05-15T01:22:14.165Z,399.00
2023-05-15T01:23:14.167Z,398.00
2023-05-15T01:24:14.185Z,396.00
2023-05-15T01:25:14.161Z,396.00
2023-05-15T01:26:14.189Z,398.00
2023-05-15T01:27:14.204Z,398.00
2023-05-15T01:28:14.158Z,397.00
2023-05-15T01:29:14.179Z,398.00
2023-05-15T01:30:14.186Z,397.00
2023-05-15T01:31:14.186Z,398.00
2023-05-15T01:32:14.899Z,397.00
2023-05-15T01:33:14.205Z,397.00
2023-05-15T01:34:14.185Z,397.00
2023-05-15T01:35:14.190Z,395.00
2023-05-15T01:36:14.198Z,395.00
2023-05-15T01:37:14.236Z,394.00
2023-05-15T01:38:14.209Z,394.00
2023-05-15T01:39:14.220Z,393.00
2023-05-15T01:40:14.226Z,394.00
2023-05-15T01:41:14.219Z,395.00
2023-05-15T01:42:14.228Z,395.00
2023-05-15T01:43:14.245Z,397.00
2023-05-15T01:44:14.237Z,395.00
2023-05-15T01:45:14.236Z,394.00
2023-05-15T01:46:14.306Z,393.00
2023-05-15T01:47:14.253Z,399.00
2023-05-15T01:48:14.269Z,398.00
2023-05-15T01:49:14.255Z,398.00
2023-05-15T01:50:14.266Z,395.00
2023-05-15T01:51:14.295Z,398.00
2023-05-15T01:52:14.327Z,398.00
2023-05-15T01:53:14.317Z,399.00
2023-05-15T01:54:14.270Z,400.00
2023-05-15T01:55:14.283Z,400.00
2023-05-15T01:56:14.300Z,403.00
2023-05-15T01:57:14.320Z,401.00
2023-05-15T01:58:14.287Z,401.00
2023-05-15T01:59:14.334Z,398.00
2023-05-15T02:00:14.317Z,398.00
2023-05-15T02:01:14.328Z,396.00
2023-05-15T02:02:14.321Z,399.00
2023-05-15T02:03:14.397Z,401.00
2023-05-15T02:04:14.334Z,399.00
2023-05-15T02:05:14.345Z,398.00
2023-05-15T02:06:14.342Z,398.00
2023-05-15T02:07:14.343Z,399.00
2023-05-15T02:08:14.342Z,397.00
2023-05-15T02:09:14.348Z,397.00
2023-05-15T02:10:14.372Z,395.00
2023-05-15T02:11:14.346Z,395.00
2023-05-15T02:12:14.356Z,392.00
2023-05-15T02:13:14.369Z,391.00
2023-05-15T02:14:14.373Z,392.00
2023-05-15T02:15:14.393Z,391.00
2023-05-15T02:16:14.441Z,392.00
2023-05-15T02:17:14.372Z,393.00
2023-05-15T02:18:14.385Z,396.00
2023-05-15T02:19:14.434Z,396.00
2023-05-15T02:20:14.418Z,396.00
2023-05-15T02:21:14.401Z,394.00
2023-05-15T02:22:14.389Z,395.00
2023-05-15T02:23:14.402Z,396.00
2023-05-15T02:24:14.414Z,398.00
2023-05-15T02:25:14.458Z,397.00
2023-05-15T02:26:14.445Z,398.00
2023-05-15T02:27:14.466Z,396.00
2023-05-15T02:28:14.447Z,393.00
2023-05-15T02:29:14.475Z,392.00
2023-05-15T02:30:14.459Z,392.00
2023-05-15T02:31:14.526Z,394.00
2023-05-15T02:32:14.675Z,394.00
2023-05-15T02:33:14.480Z,392.00
2023-05-15T02:34:14.477Z,395.00
2023-05-15T02:35:14.464Z,393.00
2023-05-15T02:36:14.496Z,392.00
2023-05-15T02:37:14.507Z,392.00
2023-05-15T02:38:14.526Z,394.00
2023-05-15T02:39:14.486Z,395.00
2023-05-15T02:40:14.485Z,397.00
2023-05-15T02:41:14.513Z,396.00
2023-05-15T02:42:14.525Z,393.00
2023-05-15T02:43:14.510Z,394.00
2023-05-15T02:44:14.502Z,396.00
2023-05-15T02:45:14.505Z,394.00
2023-05-15T02:46:14.536Z,395.00
2023-05-15T02:47:14.495Z,394.00
2023-05-15T02:48:14.507Z,393.00
2023-05-15T02:49:14.478Z,394.00
2023-05-15T02:50:14.484Z,396.00
2023-05-15T02:51:14.500Z,394.00
2023-05-15T02:52:14.487Z,393.00
2023-05-15T02:53:14.563Z,393.00
2023-05-15T02:54:14.478Z,391.00
2023-05-15T02:55:14.498Z,393.00
2023-05-15T02:56:14.465Z,394.00
2023-05-15T02:57:14.510Z,392.00
2023-05-15T02:58:15.312Z,391.00
2023-05-15T02:59:14.551Z,392.00
2023-05-15T03:00:14.609Z,392.00
2023-05-15T03:01:14.756Z,390.00
2023-05-15T03:02:14.726Z,393.00
2023-05-15T03:03:14.806Z,394.00
2023-05-15T03:04:14.953Z,396.00
2023-05-15T03:05:14.931Z,397.00
2023-05-15T03:06:14.979Z,398.00
2023-05-15T03:07:15.045Z,398.00
2023-05-15T03:08:15.109Z,399.00
2023-05-15T03:09:15.164Z,401.00
2023-05-15T03:10:15.240Z,404.00
2023-05-15T03:11:15.287Z,406.00
2023-05-15T03:12:15.341Z,406.00
2023-05-15T03:13:15.402Z,404.00
2023-05-15T03:14:15.454Z,402.00
2023-05-15T03:15:15.475Z,401.00
2023-05-15T03:16:15.539Z,400.00
2023-05-15T03:17:15.924Z,399.00
2023-05-15T03:18:18.539Z,398.00
2023-05-15T03:19:15.730Z,396.00
2023-05-15T03:20:15.660Z,395.00
2023-05-15T03:21:15.648Z,394.00
2023-05-15T03:22:15.623Z,393.00
2023-05-15T03:23:15.632Z,393.00
2023-05-15T03:24:15.613Z,397.00
2023-05-15T03:25:15.609Z,399.00
2023-05-15T03:26:15.598Z,397.00
2023-05-15T03:27:15.604Z,396.00
2023-05-15T03:28:15.574Z,397.00
2023-05-15T03:29:15.572Z,400.00
2023-05-15T03:30:15.553Z,399.00
2023-05-15T03:31:15.644Z,399.00
2023-05-15T03:32:15.631Z,398.00
2023-05-15T03:33:15.545Z,399.00
2023-05-15T03:34:15.530Z,400.00
2023-05-15T03:35:15.629Z,401.00
2023-05-15T03:36:15.519Z,401.00
2023-05-15T03:37:15.505Z,402.00
2023-05-15T03:38:15.482Z,402.00
2023-05-15T03:39:15.527Z,401.00
2023-05-15T03:40:15.498Z,403.00
2023-05-15T03:41:15.479Z,403.00
2023-05-15T03:42:15.488Z,402.00
2023-05-15T03:43:15.479Z,401.00
2023-05-15T03:44:15.471Z,400.00
2023-05-15T03:45:15.471Z,398.00
2023-05-15T03:46:15.776Z,396.00
2023-05-15T03:47:15.464Z,397.00
2023-05-15T03:48:15.424Z,396.00
2023-05-15T03:49:15.430Z,394.00
2023-05-15T03:50:15.486Z,395.00
2023-05-15T03:51:15.423Z,395.00
2023-05-15T03:52:15.394Z,394.00
2023-05-15T03:53:15.398Z,392.00
2023-05-15T03:54:15.417Z,392.00
2023-05-15T03:55:15.377Z,390.00
2023-05-15T03:56:15.357Z,391.00
2023-05-15T03:57:15.347Z,393.00
2023-05-15T03:58:15.406Z,395.00
2023-05-15T03:59:15.351Z,393.00
2023-05-15T04:00:16.953Z,393.00
2023-05-15T04:01:15.354Z,395.00
2023-05-15T04:02:15.338Z,395.00
2023-05-15T04:03:15.416Z,395.00
2023-05-15T04:04:15.360Z,395.00
2023-05-15T04:05:15.463Z,395.00
2023-05-15T04:06:15.445Z,395.00
2023-05-15T04:07:15.513Z,394.00
2023-05-15T04:08:15.562Z,394.00
2023-05-15T04:09:15.598Z,394.00
2023-05-15T04:10:15.664Z,394.00
2023-05-15T04:11:15.733Z,391.00
2023-05-15T04:12:15.740Z,391.00
2023-05-15T04:13:15.787Z,392.00
2023-05-15T04:14:15.857Z,393.00
2023-05-15T04:15:15.912Z,396.00
2023-05-15T04:16:16.010Z,397.00
2023-05-15T04:17:15.969Z,396.00
2023-05-15T04:18:16.039Z,396.00
2023-05-15T04:19:16.178Z,396.00
2023-05-15T04:20:16.118Z,394.00
2023-05-15T04:21:16.174Z,396.00
2023-05-15T04:22:16.244Z,397.00
2023-05-15T04:23:16.256Z,396.00
2023-05-15T04:24:16.289Z,396.00
2023-05-15T04:25:16.461Z,396.00
2023-05-15T04:26:16.362Z,397.00
2023-05-15T04:27:16.406Z,397.00
2023-05-15T04:28:16.452Z,398.00
2023-05-15T04:29:16.540Z,398.00
2023-05-15T04:30:16.532Z,398.00
2023-05-15T04:31:16.601Z,397.00
2023-05-15T04:32:16.757Z,398.00
2023-05-15T04:33:16.663Z,397.00
2023-05-15T04:34:16.700Z,398.00
2023-05-15T04:35:16.753Z,398.00
2023-05-15T04:36:16.774Z,397.00
2023-05-15T04:37:16.944Z,398.00
2023-05-15T04:38:16.856Z,396.00
2023-05-15T04:39:16.932Z,397.00
2023-05-15T04:40:17.053Z,399.00
2023-05-15T04:41:17.033Z,401.00
2023-05-15T04:42:17.073Z,400.00
2023-05-15T04:43:17.111Z,402.00
2023-05-15T04:44:17.144Z,400.00
2023-05-15T04:45:17.212Z,399.00
2023-05-15T04:46:17.283Z,399.00
2023-05-15T04:47:17.285Z,399.00
2023-05-15T04:48:17.330Z,398.00
2023-05-15T04:49:17.360Z,397.00
2023-05-15T04:50:17.429Z,396.00
2023-05-15T04:51:17.466Z,397.00
2023-05-15T04:52:17.507Z,401.00
2023-05-15T04:53:17.562Z,402.00
2023-05-15T04:54:17.612Z,402.00
2023-05-15T04:55:17.668Z,404.00
2023-05-15T04:56:17.704Z,404.00
2023-05-15T04:57:17.821Z,402.00
2023-05-15T04:58:17.821Z,403.00
2023-05-15T04:59:17.854Z,402.00
2023-05-15T05:00:17.942Z,402.00
2023-05-15T05:01:25.512Z,403.00
2023-05-15T05:02:17.979Z,400.00
2023-05-15T05:03:18.018Z,400.00
2023-05-15T05:04:17.984Z,403.00
2023-05-15T05:05:17.928Z,403.00
2023-05-15T05:06:17.933Z,403.00
2023-05-15T05:07:17.952Z,403.00
2023-05-15T05:08:17.951Z,401.00
2023-05-15T05:09:17.899Z,400.00
2023-05-15T05:10:17.894Z,398.00
2023-05-15T05:11:17.910Z,399.00
2023-05-15T05:12:17.861Z,399.00
2023-05-15T05:13:17.862Z,399.00
2023-05-15T05:14:17.893Z,397.00
2023-05-15T05:15:17.870Z,400.00
2023-05-15T05:16:17.888Z,401.00
2023-05-15T05:17:17.867Z,401.00
2023-05-15T05:18:17.825Z,401.00
2023-05-15T05:19:17.877Z,402.00
2023-05-15T05:20:17.846Z,403.00
2023-05-15T05:21:17.832Z,405.00
2023-05-15T05:22:17.845Z,406.00
2023-05-15T05:23:17.804Z,404.00
2023-05-15T05:24:17.818Z,401.00
2023-05-15T05:25:17.780Z,399.00
2023-05-15T05:26:17.792Z,397.00
2023-05-15T05:27:17.795Z,397.00
2023-05-15T05:28:17.770Z,395.00
2023-05-15T05:29:17.777Z,397.00
2023-05-15T05:30:17.745Z,399.00
2023-05-15T05:31:17.784Z,400.00
2023-05-15T05:32:17.802Z,400.00
2023-05-15T05:33:17.927Z,407.00
2023-05-15T05:34:17.754Z,450.00
2023-05-15T05:35:17.732Z,565.00
2023-05-15T05:36:17.724Z,490.00
2023-05-15T05:37:17.735Z,564.00
2023-05-15T05:38:17.697Z,556.00
2023-05-15T05:39:17.726Z,537.00
2023-05-15T05:40:17.716Z,520.00
2023-05-15T05:41:17.695Z,518.00
2023-05-15T05:42:17.696Z,534.00
2023-05-15T05:43:17.656Z,544.00
2023-05-15T05:44:17.683Z,558.00
2023-05-15T05:45:17.704Z,561.00
2023-05-15T05:46:24.791Z,663.00
2023-05-15T05:47:17.795Z,843.00
2023-05-15T05:48:17.917Z,844.00
2023-05-15T05:49:17.760Z,753.00
2023-05-15T05:50:17.724Z,687.00
2023-05-15T05:51:17.738Z,724.00
2023-05-15T05:52:17.702Z,712.00
2023-05-15T05:53:17.687Z,758.00
2023-05-15T05:54:17.674Z,783.00
2023-05-15T05:55:17.722Z,758.00
2023-05-15T05:56:17.746Z,754.00
2023-05-15T05:57:17.690Z,848.00
2023-05-15T05:58:24.945Z,848.00
2023-05-15T05:59:19.395Z,827.00
2023-05-15T06:00:17.659Z,899.00
2023-05-15T06:01:17.719Z,939.00
2023-05-15T06:02:17.768Z,966.00
2023-05-15T06:03:17.744Z,973.00
2023-05-15T06:04:18.325Z,1082.00
2023-05-15T06:05:17.647Z,1063.00
2023-05-15T06:06:17.604Z,1165.00
2023-05-15T06:07:17.606Z,1074.00
2023-05-15T06:08:17.599Z,1082.00
2023-05-15T06:09:17.584Z,1116.00
2023-05-15T06:10:17.572Z,1142.00
2023-05-15T06:11:17.577Z,1138.00
2023-05-15T06:12:17.585Z,1215.00
2023-05-15T06:13:17.923Z,1217.00
2023-05-15T06:14:18.569Z,1234.00
2023-05-15T06:15:17.555Z,1224.00
2023-05-15T06:16:17.561Z,1222.00
2023-05-15T06:17:17.588Z,1316.00
2023-05-15T06:18:17.916Z,1284.00
2023-05-15T06:19:17.658Z,1284.00
2023-05-15T06:20:17.548Z,1288.00
2023-05-15T06:21:17.488Z,1283.00
2023-05-15T06:22:17.489Z,1201.00
2023-05-15T06:23:17.467Z,1376.00
2023-05-15T06:24:17.495Z,1263.00
2023-05-15T06:25:17.470Z,1326.00
2023-05-15T06:26:17.470Z,1415.00
2023-05-15T06:27:17.486Z,1455.00
2023-05-15T06:28:17.473Z,1450.00
2023-05-15T06:29:17.459Z,1457.00
2023-05-15T06:30:17.449Z,1393.00
2023-05-15T06:31:17.586Z,1400.00
2023-05-15T06:32:17.522Z,1444.00
2023-05-15T06:33:17.544Z,1447.00
2023-05-15T06:34:17.633Z,1547.00
2023-05-15T06:35:17.631Z,1564.00
2023-05-15T06:36:17.646Z,1470.00
2023-05-15T06:37:17.699Z,1469.00
2023-05-15T06:38:17.983Z,1496.00
2023-05-15T06:39:17.806Z,1498.00
2023-05-15T06:40:17.835Z,1504.00
2023-05-15T06:41:17.914Z,1513.00
2023-05-15T06:42:17.951Z,1428.00
2023-05-15T06:43:18.473Z,1458.00
2023-05-15T06:44:18.049Z,1398.00
2023-05-15T06:45:18.197Z,1372.00
2023-05-15T06:46:18.160Z,1289.00
2023-05-15T06:47:18.137Z,1295.00
2023-05-15T06:48:18.136Z,1307.00
2023-05-15T06:49:18.139Z,1311.00
2023-05-15T06:50:18.090Z,1314.00
2023-05-15T06:51:18.064Z,1307.00
2023-05-15T06:52:18.080Z,1302.00
2023-05-15T06:53:18.146Z,1263.00
2023-05-15T06:54:18.081Z,1212.00
2023-05-15T06:55:18.154Z,1162.00
2023-05-15T06:56:18.105Z,1150.00
2023-05-15T06:57:18.106Z,1143.00
2023-05-15T06:58:18.177Z,1143.00
2023-05-15T06:59:18.167Z,1138.00
2023-05-15T07:00:18.114Z,1136.00
2023-05-15T07:01:18.141Z,1128.00
2023-05-15T07:02:18.189Z,1121.00
2023-05-15T07:03:18.172Z,1112.00
2023-05-15T07:04:18.450Z,1105.00
2023-05-15T07:05:18.180Z,1103.00
2023-05-15T07:06:18.169Z,1090.00
2023-05-15T07:07:18.185Z,1052.00
2023-05-15T07:08:18.262Z,1051.00
2023-05-15T07:09:18.191Z,1042.00
2023-05-15T07:10:18.242Z,995.00
2023-05-15T07:11:18.246Z,996.00
2023-05-15T07:12:18.234Z,990.00
2023-05-15T07:13:18.250Z,970.00
2023-05-15T07:14:18.249Z,974.00
2023-05-15T07:15:18.304Z,974.00
2023-05-15T07:16:18.325Z,972.00
2023-05-15T07:17:18.316Z,966.00
2023-05-15T07:18:18.385Z,966.00
2023-05-15T07:19:18.366Z,955.00
2023-05-15T07:20:19.350Z,937.00
2023-05-15T07:21:18.295Z,925.00
2023-05-15T07:22:18.318Z,895.00
2023-05-15T07:23:18.298Z,877.00
2023-05-15T07:24:18.321Z,866.00
2023-05-15T07:25:18.296Z,863.00
2023-05-15T07:26:27.550Z,858.00
2023-05-15T07:27:19.338Z,847.00
2023-05-15T07:28:18.372Z,838.00
2023-05-15T07:29:18.260Z,832.00
2023-05-15T07:30:18.254Z,814.00
2023-05-15T07:31:18.249Z,781.00
2023-05-15T07:32:18.317Z,777.00
2023-05-15T07:33:18.261Z,761.00
2023-05-15T07:34:18.498Z,708.00
2023-05-15T07:35:18.273Z,697.00
2023-05-15T07:36:18.211Z,691.00
2023-05-15T07:37:18.226Z,693.00
2023-05-15T07:38:18.266Z,681.00
2023-05-15T07:39:18.215Z,665.00
2023-05-15T07:40:18.184Z,650.00
2023-05-15T07:41:18.259Z,643.00
2023-05-15T07:42:18.298Z,632.00
2023-05-15T07:43:19.301Z,625.00
2023-05-15T07:44:18.482Z,618.00
2023-05-15T07:45:18.302Z,613.00
2023-05-15T07:46:18.299Z,605.00
2023-05-15T07:47:18.224Z,593.00
2023-05-15T07:48:18.287Z,582.00
2023-05-15T07:49:18.479Z,571.00
2023-05-15T07:50:18.393Z,536.00
2023-05-15T07:51:18.211Z,534.00
2023-05-15T07:52:18.288Z,530.00
2023-05-15T07:53:18.308Z,523.00
2023-05-15T07:54:18.373Z,519.00
2023-05-15T07:55:18.531Z,518.00
2023-05-15T07:56:18.543Z,510.00
2023-05-15T07:57:18.556Z,505.00
2023-05-15T07:58:18.614Z,498.00
2023-05-15T07:59:19.028Z,495.00
2023-05-15T08:00:18.692Z,493.00
2023-05-15T08:01:18.785Z,491.00
2023-05-15T08:02:18.923Z,488.00
2023-05-15T08:03:19.164Z,488.00
2023-05-15T08:04:19.042Z,488.00
2023-05-15T08:05:19.064Z,487.00
2023-05-15T08:06:19.082Z,485.00
2023-05-15T08:07:19.156Z,483.00
2023-05-15T08:08:19.194Z,482.00
2023-05-15T08:09:19.260Z,481.00
2023-05-15T08:10:19.310Z,480.00
2023-05-15T08:11:19.368Z,478.00
2023-05-15T08:12:20.354Z,475.00
2023-05-15T08:13:19.355Z,473.00
2023-05-15T08:14:19.401Z,472.00
2023-05-15T08:15:19.349Z,469.00
2023-05-15T08:16:19.415Z,463.00
2023-05-15T08:17:19.382Z,462.00
2023-05-15T08:18:19.305Z,460.00
2023-05-15T08:19:19.433Z,460.00
2023-05-15T08:20:19.314Z,460.00
2023-05-15T08:21:19.291Z,455.00
2023-05-15T08:22:19.305Z,451.00
2023-05-15T08:23:19.304Z,449.00
2023-05-15T08:24:19.310Z,450.00
2023-05-15T08:25:19.342Z,451.00
2023-05-15T08:26:19.442Z,451.00
2023-05-15T08:27:19.432Z,451.00
2023-05-15T08:28:19.467Z,450.00
2023-05-15T08:29:19.492Z,450.00
2023-05-15T08:30:19.557Z,450.00
2023-05-15T08:31:19.617Z,451.00
2023-05-15T08:32:19.584Z,448.00
2023-05-15T08:33:19.682Z,448.00
2023-05-15T08:34:19.727Z,450.00
2023-05-15T08:35:19.724Z,452.00
2023-05-15T08:36:19.854Z,454.00
2023-05-15T08:37:19.838Z,451.00
2023-05-15T08:38:19.859Z,454.00
2023-05-15T08:39:19.889Z,454.00
2023-05-15T08:40:25.707Z,453.00
2023-05-15T08:41:32.615Z,453.00
2023-05-15T08:42:20.964Z,451.00
2023-05-15T08:43:19.927Z,448.00
2023-05-15T08:44:19.928Z,447.00
2023-05-15T08:45:19.900Z,444.00
2023-05-15T08:46:19.967Z,442.00
2023-05-15T08:47:19.910Z,439.00
2023-05-15T08:48:20.007Z,437.00
2023-05-15T08:49:19.894Z,437.00
2023-05-15T08:50:19.887Z,437.00
2023-05-15T08:51:19.916Z,435.00
2023-05-15T08:52:19.893Z,437.00
2023-05-15T08:53:19.861Z,439.00
2023-05-15T08:54:19.887Z,440.00
2023-05-15T08:55:20.036Z,441.00
2023-05-15T08:56:19.840Z,439.00
2023-05-15T08:57:19.850Z,438.00
2023-05-15T08:58:19.789Z,438.00
2023-05-15T08:59:19.808Z,438.00
2023-05-15T09:00:19.854Z,439.00
2023-05-15T09:01:19.878Z,436.00
2023-05-15T09:02:19.810Z,438.00
2023-05-15T09:03:20.111Z,439.00
2023-05-15T09:04:19.765Z,436.00
2023-05-15T09:05:20.023Z,437.00
2023-05-15T09:06:19.773Z,440.00
2023-05-15T09:07:19.740Z,441.00
2023-05-15T09:08:19.763Z,439.00
2023-05-15T09:09:19.740Z,437.00
2023-05-15T09:10:19.864Z,435.00
2023-05-15T09:11:19.840Z,433.00
2023-05-15T09:12:19.896Z,433.00
2023-05-15T09:13:19.916Z,433.00
2023-05-15T09:14:20.148Z,435.00
2023-05-15T09:15:20.016Z,433.00
2023-05-15T09:16:20.107Z,432.00
2023-05-15T09:17:20.134Z,431.00
2023-05-15T09:18:20.157Z,430.00
2023-05-15T09:19:20.262Z,429.00
2023-05-15T09:20:20.242Z,427.00
2023-05-15T09:21:20.286Z,425.00
2023-05-15T09:22:20.324Z,424.00
2023-05-15T09:23:20.376Z,426.00
2023-05-15T09:24:20.456Z,426.00
2023-05-15T09:25:20.526Z,428.00
2023-05-15T09:26:20.524Z,427.00
2023-05-15T09:27:20.595Z,427.00
2023-05-15T09:28:20.600Z,429.00
2023-05-15T09:29:20.678Z,428.00
2023-05-15T09:30:20.720Z,425.00
2023-05-15T09:31:20.862Z,424.00
2023-05-15T09:32:20.879Z,424.00
2023-05-15T09:33:20.908Z,425.00
2023-05-15T09:34:20.922Z,424.00
2023-05-15T09:35:20.967Z,423.00
2023-05-15T09:36:21.047Z,423.00
2023-05-15T09:37:21.078Z,422.00
2023-05-15T09:38:21.101Z,423.00
2023-05-15T09:39:21.164Z,423.00
2023-05-15T09:40:21.507Z,424.00
2023-05-15T09:41:21.286Z,423.00
2023-05-15T09:42:21.301Z,421.00
2023-05-15T09:43:21.358Z,421.00
2023-05-15T09:44:21.917Z,420.00
2023-05-15T09:45:21.575Z,421.00
2023-05-15T09:46:21.585Z,417.00
2023-05-15T09:47:21.836Z,415.00
2023-05-15T09:48:21.596Z,414.00
2023-05-15T09:49:21.633Z,414.00
2023-05-15T09:50:22.121Z,415.00
2023-05-15T09:51:21.718Z,413.00
2023-05-15T09:52:21.841Z,415.00
2023-05-15T09:53:21.830Z,417.00
2023-05-15T09:54:21.872Z,418.00
2023-05-15T09:55:21.990Z,422.00
2023-05-15T09:56:22.031Z,421.00
2023-05-15T09:57:22.010Z,420.00
2023-05-15T09:58:22.046Z,418.00
2023-05-15T09:59:22.080Z,416.00
2023-05-15T10:00:22.626Z,414.00
2023-05-15T10:01:22.223Z,413.00
2023-05-15T10:02:22.316Z,414.00
2023-05-15T10:03:22.351Z,415.00
2023-05-15T10:04:22.305Z,416.00
2023-05-15T10:05:35.303Z,417.00
2023-05-15T10:06:23.395Z,415.00
2023-05-15T10:07:22.340Z,414.00
2023-05-15T10:08:22.324Z,411.00
2023-05-15T10:09:22.368Z,411.00
2023-05-15T10:10:22.391Z,414.00
2023-05-15T10:11:22.364Z,414.00
2023-05-15T10:12:23.309Z,413.00
2023-05-15T10:13:22.317Z,411.00
2023-05-15T10:14:22.308Z,413.00
2023-05-15T10:15:22.328Z,411.00
2023-05-15T10:16:22.538Z,412.00
2023-05-15T10:17:22.319Z,414.00
2023-05-15T10:18:22.255Z,414.00
2023-05-15T10:19:23.079Z,414.00
2023-05-15T10:20:22.290Z,415.00
2023-05-15T10:21:22.426Z,417.00
2023-05-15T10:22:22.259Z,414.00
2023-05-15T10:23:22.322Z,412.00
2023-05-15T10:24:22.304Z,410.00
2023-05-15T10:25:22.346Z,409.00
2023-05-15T10:26:22.388Z,410.00
2023-05-15T10:27:22.433Z,413.00
2023-05-15T10:28:22.482Z,415.00
2023-05-15T10:29:22.501Z,412.00
2023-05-15T10:30:22.588Z,411.00
2023-05-15T10:31:22.643Z,412.00
2023-05-15T10:32:22.602Z,414.00
2023-05-15T10:33:22.774Z,415.00
2023-05-15T10:34:22.698Z,414.00
2023-05-15T10:35:22.704Z,413.00
2023-05-15T10:36:22.782Z,412.00
2023-05-15T10:37:22.828Z,412.00
2023-05-15T10:38:22.837Z,411.00
2023-05-15T10:39:22.917Z,411.00
2023-05-15T10:40:23.083Z,411.00
2023-05-15T10:41:22.980Z,409.00
2023-05-15T10:42:23.024Z,409.00
2023-05-15T10:43:23.070Z,410.00
2023-05-15T10:44:23.155Z,408.00
2023-05-15T10:45:23.579Z,658.00
2023-05-15T10:46:23.224Z,661.00
2023-05-15T10:47:23.407Z,662.00
2023-05-15T10:48:24.294Z,561.00
2023-05-15T10:49:23.277Z,819.00
2023-05-15T10:50:23.693Z,687.00
2023-05-15T10:51:23.271Z,674.00
2023-05-15T10:52:23.265Z,844.00
2023-05-15T10:53:23.301Z,781.00
2023-05-15T10:54:23.257Z,687.00
2023-05-15T10:55:23.575Z,722.00
2023-05-15T10:56:23.328Z,803.00
2023-05-15T10:57:23.254Z,792.00
2023-05-15T10:58:23.269Z,753.00
2023-05-15T10:59:23.297Z,725.00
2023-05-15T11:00:24.071Z,705.00
2023-05-15T11:01:23.332Z,704.00
2023-05-15T11:02:23.415Z,742.00
2023-05-15T11:03:23.395Z,742.00
2023-05-15T11:04:23.470Z,717.00
2023-05-15T11:05:23.436Z,720.00
2023-05-15T11:06:23.439Z,733.00
2023-05-15T11:07:23.428Z,728.00
2023-05-15T11:08:23.438Z,732.00
2023-05-15T11:09:24.802Z,724.00
2023-05-15T11:10:23.600Z,719.00
2023-05-15T11:11:23.481Z,703.00
2023-05-15T11:12:23.473Z,782.00
2023-05-15T11:13:23.436Z,618.00
2023-05-15T11:14:23.415Z,619.00
2023-05-15T11:15:23.428Z,623.00
2023-05-15T11:16:23.430Z,633.00
2023-05-15T11:17:23.417Z,709.00
2023-05-15T11:18:23.423Z,664.00
2023-05-15T11:19:23.375Z,1034.00
2023-05-15T11:20:23.473Z,718.00
2023-05-15T11:21:23.550Z,711.00
2023-05-15T11:22:23.406Z,785.00
2023-05-15T11:23:23.380Z,674.00
2023-05-15T11:24:23.414Z,707.00
2023-05-15T11:25:23.357Z,701.00
2023-05-15T11:26:23.368Z,652.00
2023-05-15T11:27:23.376Z,759.00
2023-05-15T11:28:23.352Z,734.00
2023-05-15T11:29:23.358Z,766.00
2023-05-15T11:30:23.364Z,744.00
2023-05-15T11:31:23.611Z,719.00
2023-05-15T11:32:23.313Z,718.00
2023-05-15T11:33:23.614Z,724.00
2023-05-15T11:34:23.278Z,729.00
2023-05-15T11:35:23.289Z,733.00
2023-05-15T11:36:23.554Z,714.00
2023-05-15T11:37:23.302Z,690.00
2023-05-15T11:38:23.302Z,705.00
2023-05-15T11:39:23.303Z,702.00
2023-05-15T11:40:23.505Z,698.00
2023-05-15T11:41:23.593Z,700.00
2023-05-15T11:42:23.225Z,702.00
2023-05-15T11:43:23.242Z,731.00
2023-05-15T11:44:23.229Z,714.00
2023-05-15T11:45:23.234Z,705.00
2023-05-15T11:46:23.215Z,702.00
2023-05-15T11:47:23.204Z,697.00
2023-05-15T11:48:23.180Z,690.00
2023-05-15T11:49:23.169Z,678.00
2023-05-15T11:50:23.531Z,655.00
2023-05-15T11:51:23.180Z,652.00
2023-05-15T11:52:23.138Z,642.00
2023-05-15T11:53:23.174Z,641.00
2023-05-15T11:54:23.154Z,635.00
2023-05-15T11:55:23.134Z,631.00
2023-05-15T11:56:23.131Z,624.00
2023-05-15T11:57:23.121Z,624.00
2023-05-15T11:58:23.138Z,626.00
2023-05-15T11:59:23.112Z,627.00
2023-05-15T12:00:23.138Z,621.00
2023-05-15T12:01:23.093Z,611.00
2023-05-15T12:02:23.077Z,609.00
2023-05-15T12:03:23.155Z,611.00
2023-05-15T12:04:23.160Z,612.00
2023-05-15T12:05:23.089Z,611.00
2023-05-15T12:06:23.084Z,611.00
2023-05-15T12:07:23.038Z,610.00
2023-05-15T12:08:23.047Z,607.00
2023-05-15T12:09:23.041Z,602.00
2023-05-15T12:10:23.192Z,599.00
2023-05-15T12:11:23.026Z,590.00
2023-05-15T12:12:22.985Z,580.00
2023-05-15T12:13:22.974Z,578.00
2023-05-15T12:14:23.001Z,578.00
2023-05-15T12:15:23.049Z,578.00
2023-05-15T12:16:23.022Z,573.00
2023-05-15T12:17:23.016Z,570.00
2023-05-15T12:18:22.992Z,571.00
2023-05-15T12:19:23.091Z,560.00
2023-05-15T12:20:23.129Z,551.00
2023-05-15T12:21:23.108Z,546.00
2023-05-15T12:22:23.115Z,543.00
2023-05-15T12:23:23.135Z,543.00
2023-05-15T12:24:23.169Z,543.00
2023-05-15T12:25:23.207Z,543.00
2023-05-15T12:26:23.255Z,543.00